CFU3 weather

Chipman Airport
Chipman, Alberta, Canada

Public forecast

Using degrees Celsius for public forecast. Weather courtesy of forecast.io.

Closest aviation weather report (METAR) to Chipman Airport

Closest report is Edmonton (CFB Namao) Heliport, 30.0 nm (55.5 km) W. Retrieved 2019/11/19 14:00 UTC (14 minutes ago):

CYED 191400Z AUTO 00000KT 9SM OVC052 M02/M02 A2979 RMK SLP118

Closest aviation forecast (TAF) to Chipman Airport

Closest forecast is Edmonton (CFB Namao) Heliport, 30.0 nm (55.5 km) W. Retrieved 2019/11/19 12:33 UTC (2 hours ago):

TAF CYED 191130Z 1912/1924 VRB03KT P6SM FEW030 SCT120 BKN260 TEMPO 1912/1915 5SM -SN BKN030 FM191500 VRB03KT 2SM -SN BKN015 OVC030 TEMPO 1915/1921 6SM -SN SCT015 OVC030 FM192100 VRB03KT P6SM SCT015 BKN070 TEMPO 1921/1924 5SM -SHSN BKN015 OVC070 RMK FCST BASED ON AUTO OBS 191200-191800Z NXT FCST BY 191800Z